createdAt,value
2018-07-25T00:02:23.222Z,8.00
2018-07-25T00:04:52.349Z,7.53
2018-07-25T00:07:21.603Z,10.70
2018-07-25T00:09:50.921Z,8.68
2018-07-25T00:12:20.047Z,11.30
2018-07-25T00:14:49.204Z,12.90
2018-07-25T00:17:18.341Z,8.05
2018-07-25T00:19:47.489Z,8.33
2018-07-25T00:22:16.682Z,10.53
2018-07-25T00:24:45.806Z,9.23
2018-07-25T00:27:14.618Z,7.83
2018-07-25T00:29:43.891Z,8.40
2018-07-25T00:32:13.004Z,11.70
2018-07-25T00:34:42.161Z,8.50
2018-07-25T00:37:11.288Z,10.07
2018-07-25T00:39:40.398Z,10.07
2018-07-25T00:42:09.835Z,11.40
2018-07-25T00:44:38.988Z,10.37
2018-07-25T00:47:08.093Z,11.25
2018-07-25T00:49:37.352Z,11.30
2018-07-25T00:52:06.661Z,13.13
2018-07-25T00:54:35.798Z,8.53
2018-07-25T00:57:04.991Z,9.23
2018-07-25T00:59:34.181Z,9.37
2018-07-25T01:02:03.327Z,10.63
2018-07-25T01:04:32.437Z,10.10
2018-07-25T01:07:01.592Z,12.20
2018-07-25T01:09:30.876Z,10.10
2018-07-25T01:12:00.120Z,13.17
2018-07-25T01:14:29.270Z,10.80
2018-07-25T01:16:58.438Z,8.73
2018-07-25T01:19:28.175Z,8.93
2018-07-25T01:21:57.336Z,9.43
2018-07-25T01:24:26.968Z,10.67
2018-07-25T01:26:56.073Z,9.97
2018-07-25T01:29:25.380Z,10.53
2018-07-25T01:31:54.554Z,12.53
2018-07-25T01:34:23.703Z,16.50
2018-07-25T01:36:52.859Z,14.83
2018-07-25T01:39:22.015Z,13.27
2018-07-25T01:41:51.193Z,13.27
2018-07-25T01:44:20.402Z,22.20
2018-07-25T01:46:49.562Z,17.67
2018-07-25T01:49:18.754Z,28.33
2018-07-25T01:51:47.910Z,15.40
2018-07-25T01:54:17.030Z,20.30
2018-07-25T01:56:45.880Z,15.37
2018-07-25T01:59:14.884Z,13.03
2018-07-25T02:01:44.071Z,15.50
2018-07-25T02:04:13.263Z,12.93
2018-07-25T02:06:42.460Z,12.60
2018-07-25T02:09:12.009Z,13.57
2018-07-25T02:11:41.180Z,15.50
2018-07-25T02:14:10.330Z,13.97
2018-07-25T02:16:39.566Z,10.07
2018-07-25T02:19:08.751Z,10.57
2018-07-25T02:21:37.918Z,11.13
2018-07-25T02:24:07.114Z,12.23
2018-07-25T02:26:36.301Z,13.40
2018-07-25T02:29:05.472Z,14.60
2018-07-25T02:31:34.595Z,12.40
2018-07-25T02:34:09.161Z,12.63
2018-07-25T02:36:38.361Z,9.90
2018-07-25T02:39:09.617Z,9.90
2018-07-25T02:41:38.769Z,9.57
2018-07-25T02:44:07.920Z,13.33
2018-07-25T02:46:37.145Z,10.47
2018-07-25T02:49:06.408Z,12.10
2018-07-25T02:51:35.641Z,8.87
2018-07-25T02:54:05.208Z,8.87
2018-07-25T02:56:34.762Z,12.37
2018-07-25T02:59:04.867Z,9.17
2018-07-25T03:01:34.751Z,10.87
2018-07-25T03:04:03.908Z,12.37
2018-07-25T03:06:33.174Z,10.67
2018-07-25T03:09:02.502Z,11.87
2018-07-25T03:11:31.646Z,10.40
2018-07-25T03:14:01.023Z,10.83
2018-07-25T03:16:30.186Z,13.77
2018-07-25T03:18:59.321Z,11.57
2018-07-25T03:21:28.467Z,12.80
2018-07-25T03:23:57.603Z,11.20
2018-07-25T03:26:26.450Z,11.10
2018-07-25T03:28:55.446Z,11.00
2018-07-25T03:31:24.692Z,14.27
2018-07-25T03:33:53.786Z,11.63
2018-07-25T03:36:23.010Z,12.43
2018-07-25T03:38:52.150Z,11.43
2018-07-25T03:41:21.330Z,11.30
2018-07-25T03:43:51.150Z,12.53
2018-07-25T03:46:20.294Z,11.73
2018-07-25T03:48:49.430Z,11.80
2018-07-25T03:51:18.622Z,19.03
2018-07-25T03:53:47.775Z,11.87
2018-07-25T03:56:16.916Z,16.43
2018-07-25T03:58:46.055Z,12.23
2018-07-25T04:01:15.202Z,18.00
2018-07-25T04:03:44.366Z,18.37
2018-07-25T04:06:13.508Z,16.50
2018-07-25T04:08:42.647Z,14.83
2018-07-25T04:11:11.893Z,14.90
2018-07-25T04:13:41.051Z,11.83
2018-07-25T04:16:10.210Z,15.80
2018-07-25T04:18:39.349Z,10.10
2018-07-25T04:21:08.586Z,11.50
2018-07-25T04:23:38.358Z,11.00
2018-07-25T04:26:07.508Z,9.37
2018-07-25T04:28:37.302Z,9.17
2018-07-25T04:31:06.966Z,14.97
2018-07-25T04:33:37.091Z,11.13
2018-07-25T04:36:06.246Z,12.90
2018-07-25T04:38:35.570Z,9.93
2018-07-25T04:41:04.694Z,8.87
2018-07-25T04:43:33.851Z,9.63
2018-07-25T04:46:03.031Z,9.07
2018-07-25T04:48:32.210Z,9.87
2018-07-25T04:51:01.358Z,11.23
2018-07-25T04:53:30.503Z,10.23
2018-07-25T04:55:59.732Z,9.90
2018-07-25T04:58:29.522Z,10.30
2018-07-25T05:00:59.425Z,12.43
2018-07-25T05:03:28.710Z,9.90
2018-07-25T05:05:57.835Z,9.67
2018-07-25T05:08:27.008Z,10.33
2018-07-25T05:10:56.234Z,10.63
2018-07-25T05:13:25.377Z,9.13
2018-07-25T05:15:54.520Z,11.27
2018-07-25T05:18:24.824Z,9.80
2018-07-25T05:20:54.361Z,12.97
2018-07-25T05:23:23.604Z,10.93
2018-07-25T05:25:52.808Z,12.87
2018-07-25T05:28:25.535Z,16.50
2018-07-25T05:30:54.927Z,13.27
2018-07-25T05:33:24.393Z,10.83
2018-07-25T05:35:53.612Z,11.20
2018-07-25T05:38:22.780Z,10.43
2018-07-25T05:40:52.067Z,10.23
2018-07-25T05:43:21.186Z,12.67
2018-07-25T05:45:50.405Z,10.67
2018-07-25T05:48:19.601Z,13.50
2018-07-25T05:50:48.756Z,11.33
2018-07-25T05:53:17.906Z,10.17
2018-07-25T05:55:47.060Z,10.30
2018-07-25T05:58:16.233Z,16.67
2018-07-25T06:00:45.423Z,11.20
2018-07-25T06:03:14.784Z,11.37
2018-07-25T06:05:44.044Z,11.13
2018-07-25T06:08:13.192Z,11.63
2018-07-25T06:10:42.638Z,12.40
2018-07-25T06:13:11.886Z,13.07
2018-07-25T06:15:41.147Z,12.70
2018-07-25T06:18:10.347Z,15.00
2018-07-25T06:20:39.648Z,13.30
2018-07-25T06:23:08.745Z,13.33
2018-07-25T06:25:37.906Z,12.87
2018-07-25T06:28:07.118Z,12.57
2018-07-25T06:30:36.337Z,12.90
2018-07-25T06:33:05.553Z,15.40
2018-07-25T06:35:34.682Z,14.40
2018-07-25T06:38:03.995Z,13.33
2018-07-25T06:40:33.145Z,13.73
2018-07-25T06:43:02.341Z,14.63
2018-07-25T06:45:31.537Z,16.33
2018-07-25T06:48:00.760Z,13.93
2018-07-25T06:50:30.049Z,13.93
2018-07-25T06:52:59.252Z,12.68
2018-07-25T06:55:28.430Z,12.63
2018-07-25T06:57:57.677Z,11.73
2018-07-25T07:00:26.913Z,14.03
2018-07-25T07:02:56.147Z,15.05
2018-07-25T07:05:27.416Z,13.70
2018-07-25T07:07:57.286Z,16.30
2018-07-25T07:10:26.590Z,11.30
2018-07-25T07:12:55.797Z,15.90
2018-07-25T07:15:25.096Z,11.45
2018-07-25T07:17:54.358Z,13.98
2018-07-25T07:20:23.497Z,13.15
2018-07-25T07:22:52.701Z,14.47
2018-07-25T07:25:21.864Z,14.43
2018-07-25T07:27:52.400Z,14.35
2018-07-25T07:30:21.577Z,14.75
2018-07-25T07:32:51.431Z,12.70
2018-07-25T07:35:20.289Z,10.98
2018-07-25T07:37:49.561Z,11.68
2018-07-25T07:40:18.638Z,11.10
2018-07-25T07:42:47.800Z,12.93
2018-07-25T07:45:17.040Z,10.88
2018-07-25T07:47:46.283Z,12.20
2018-07-25T07:50:16.409Z,11.30
2018-07-25T07:52:45.253Z,12.65
2018-07-25T07:55:14.352Z,13.13
2018-07-25T07:57:43.533Z,10.63
2018-07-25T08:00:12.789Z,11.53
2018-07-25T08:02:42.066Z,13.88
2018-07-25T08:05:11.348Z,14.45
2018-07-25T08:07:40.525Z,15.13
2018-07-25T08:10:09.728Z,12.98
2018-07-25T08:12:38.916Z,14.90
2018-07-25T08:15:08.073Z,13.83
2018-07-25T08:17:37.254Z,10.72
2018-07-25T08:20:06.462Z,14.23
2018-07-25T08:22:35.346Z,14.68
2018-07-25T08:25:04.420Z,12.10
2018-07-25T08:27:33.557Z,10.80
2018-07-25T08:30:02.782Z,10.93
2018-07-25T08:32:31.989Z,16.25
2018-07-25T08:35:01.136Z,14.30
2018-07-25T08:37:30.376Z,15.30
2018-07-25T08:39:59.636Z,10.53
2018-07-25T08:42:28.825Z,13.75
2018-07-25T08:44:58.041Z,14.98
2018-07-25T08:47:27.272Z,14.70
2018-07-25T08:49:56.771Z,9.10
2018-07-25T08:52:25.982Z,11.00
2018-07-25T08:54:55.425Z,10.00
2018-07-25T08:57:24.622Z,8.68
2018-07-25T08:59:53.826Z,10.03
2018-07-25T09:02:23.093Z,10.90
2018-07-25T09:04:52.275Z,11.40
2018-07-25T09:07:22.637Z,7.47
2018-07-25T09:09:51.857Z,9.58
2018-07-25T09:12:21.125Z,11.33
2018-07-25T09:14:50.329Z,8.18
2018-07-25T09:17:19.579Z,7.87
2018-07-25T09:19:48.831Z,6.75
2018-07-25T09:22:17.971Z,8.13
2018-07-25T09:24:47.144Z,7.47
2018-07-25T09:27:16.294Z,8.68
2018-07-25T09:29:45.490Z,8.73
2018-07-25T09:32:14.712Z,10.88
2018-07-25T09:34:44.136Z,8.45
2018-07-25T09:37:13.270Z,7.62
2018-07-25T09:39:42.426Z,7.87
2018-07-25T09:42:11.629Z,8.15
2018-07-25T09:44:40.829Z,9.70
2018-07-25T09:47:10.132Z,7.92
2018-07-25T09:49:39.292Z,7.83
2018-07-25T09:52:08.413Z,9.78
2018-07-25T09:54:37.652Z,7.37
2018-07-25T09:57:06.883Z,8.20
2018-07-25T09:59:36.093Z,6.37
2018-07-25T10:02:05.316Z,7.10
2018-07-25T10:04:34.509Z,6.67
2018-07-25T10:07:03.797Z,6.97
2018-07-25T10:09:32.960Z,7.55
2018-07-25T10:12:02.535Z,7.55
2018-07-25T10:14:31.757Z,8.50
2018-07-25T10:17:01.054Z,18.67
2018-07-25T10:19:30.273Z,8.18
2018-07-25T10:21:59.501Z,6.70
2018-07-25T10:24:28.726Z,5.70
2018-07-25T10:26:57.898Z,7.30
2018-07-25T10:29:27.105Z,9.85
2018-07-25T10:31:56.358Z,7.12
2018-07-25T10:34:25.623Z,6.87
2018-07-25T10:36:54.837Z,7.15
2018-07-25T10:39:23.964Z,7.65
2018-07-25T10:41:54.171Z,6.22
2018-07-25T10:44:23.331Z,7.53
2018-07-25T10:46:52.533Z,6.80
2018-07-25T10:49:21.392Z,6.45
2018-07-25T10:51:50.773Z,10.28
2018-07-25T10:54:20.023Z,6.42
2018-07-25T10:56:49.218Z,5.78
2018-07-25T10:59:19.130Z,5.45
2018-07-25T11:01:48.420Z,5.67
2018-07-25T11:04:17.542Z,6.30
2018-07-25T11:06:46.692Z,5.70
2018-07-25T11:09:15.833Z,8.30
2018-07-25T11:11:45.013Z,6.37
2018-07-25T11:14:13.967Z,6.95
2018-07-25T11:16:42.981Z,6.60
2018-07-25T11:19:12.087Z,8.00
2018-07-25T11:21:41.303Z,13.05
2018-07-25T11:24:10.664Z,9.05
2018-07-25T11:26:45.079Z,6.03
2018-07-25T11:29:14.454Z,7.75
2018-07-25T11:31:43.662Z,5.17
2018-07-25T11:34:12.975Z,5.03
2018-07-25T11:36:42.247Z,5.83
2018-07-25T11:39:12.729Z,6.20
2018-07-25T11:41:42.032Z,4.75
2018-07-25T11:44:11.286Z,4.80
2018-07-25T11:46:40.431Z,4.75
2018-07-25T11:49:09.749Z,4.90
2018-07-25T11:51:38.930Z,4.80
2018-07-25T11:54:08.244Z,6.15
2018-07-25T11:56:37.362Z,4.60
2018-07-25T11:59:06.748Z,4.70
2018-07-25T12:01:35.961Z,4.95
2018-07-25T12:04:05.222Z,5.47
2018-07-25T12:06:34.393Z,4.20
2018-07-25T12:09:04.682Z,4.20
2018-07-25T12:11:35.672Z,5.03
2018-07-25T12:14:04.818Z,5.00
2018-07-25T12:16:33.977Z,5.53
2018-07-25T12:19:03.193Z,6.58
2018-07-25T12:21:32.346Z,4.55
2018-07-25T12:24:01.948Z,4.70
2018-07-25T12:26:31.165Z,6.05
2018-07-25T12:29:00.442Z,5.40
2018-07-25T12:31:29.741Z,5.08
2018-07-25T12:33:58.925Z,7.85
2018-07-25T12:36:28.129Z,6.47
2018-07-25T12:38:57.267Z,5.12
2018-07-25T12:41:26.633Z,7.35
2018-07-25T12:43:55.837Z,4.47
2018-07-25T12:46:25.027Z,5.67
2018-07-25T12:48:54.227Z,6.03
2018-07-25T12:51:23.477Z,6.28
2018-07-25T12:53:52.659Z,7.42
2018-07-25T12:56:21.790Z,6.12
2018-07-25T12:58:50.971Z,4.75
2018-07-25T13:01:20.185Z,6.85
2018-07-25T13:03:49.395Z,4.72
2018-07-25T13:06:18.908Z,4.67
2018-07-25T13:08:48.059Z,4.62
2018-07-25T13:11:17.293Z,5.28
2018-07-25T13:13:46.454Z,5.00
2018-07-25T13:16:15.690Z,4.90
2018-07-25T13:18:45.910Z,4.53
2018-07-25T13:21:14.057Z,10.08
2018-07-25T13:23:43.582Z,5.03
2018-07-25T13:26:12.729Z,5.28
2018-07-25T13:28:41.922Z,6.90
2018-07-25T13:31:11.113Z,5.12
2018-07-25T13:33:40.340Z,5.60
2018-07-25T13:36:09.472Z,5.20
2018-07-25T13:38:38.717Z,5.62
2018-07-25T13:41:08.578Z,6.60
2018-07-25T13:43:37.823Z,4.55
2018-07-25T13:46:07.197Z,5.15
2018-07-25T13:48:36.295Z,5.67
2018-07-25T13:51:06.153Z,6.87
2018-07-25T13:53:35.541Z,5.33
2018-07-25T13:56:05.277Z,4.78
2018-07-25T13:58:34.602Z,4.90
2018-07-25T14:01:03.897Z,7.58
2018-07-25T14:03:33.590Z,5.37
2018-07-25T14:06:03.018Z,4.65
2018-07-25T14:08:32.222Z,4.72
2018-07-25T14:11:01.686Z,5.50
2018-07-25T14:13:30.833Z,4.90
2018-07-25T14:15:59.955Z,8.18
2018-07-25T14:18:29.175Z,7.65
2018-07-25T14:20:58.371Z,5.40
2018-07-25T14:23:27.513Z,4.25
2018-07-25T14:25:57.229Z,7.17
2018-07-25T14:28:26.584Z,6.40
2018-07-25T14:30:56.894Z,8.70
2018-07-25T14:33:26.276Z,4.05
2018-07-25T14:35:55.741Z,2.77
2018-07-25T14:38:25.636Z,4.85
2018-07-25T14:40:55.194Z,3.72
2018-07-25T14:43:24.848Z,3.08
2018-07-25T14:45:54.568Z,2.60
2018-07-25T14:48:24.868Z,4.15
2018-07-25T14:50:56.118Z,4.30
2018-07-25T14:53:25.529Z,3.50
2018-07-25T14:55:55.058Z,4.30
2018-07-25T14:58:24.381Z,5.30
2018-07-25T15:00:53.626Z,3.80
2018-07-25T15:03:22.876Z,3.60
2018-07-25T15:05:52.419Z,5.90
2018-07-25T15:08:21.640Z,4.00
2018-07-25T15:10:50.876Z,4.97
2018-07-25T15:13:20.719Z,5.85
2018-07-25T15:15:51.144Z,5.40
2018-07-25T15:18:21.144Z,4.40
2018-07-25T15:20:51.153Z,5.12
2018-07-25T15:23:25.628Z,5.70
2018-07-25T15:25:54.695Z,8.33
2018-07-25T15:28:24.773Z,8.73
2018-07-25T15:30:53.909Z,5.80
2018-07-25T15:33:23.749Z,5.50
2018-07-25T15:35:53.037Z,7.20
2018-07-25T15:38:22.881Z,5.95
2018-07-25T15:40:52.050Z,8.40
2018-07-25T15:43:21.235Z,5.62
2018-07-25T15:45:50.440Z,4.72
2018-07-25T15:48:19.870Z,6.62
2018-07-25T15:50:49.112Z,6.22
2018-07-25T15:53:18.916Z,6.45
2018-07-25T15:55:48.124Z,7.12
2018-07-25T15:58:17.623Z,4.37
2018-07-25T16:00:46.862Z,4.53
2018-07-25T16:03:16.336Z,4.75
2018-07-25T16:05:45.511Z,7.17
2018-07-25T16:08:14.975Z,5.12
2018-07-25T16:10:44.207Z,4.40
2018-07-25T16:13:13.081Z,4.55
2018-07-25T16:15:42.099Z,7.15
2018-07-25T16:18:11.324Z,5.75
2018-07-25T16:20:40.539Z,10.18
2018-07-25T16:23:09.778Z,7.90
2018-07-25T16:25:39.271Z,6.97
2018-07-25T16:28:08.527Z,5.72
2018-07-25T16:30:37.870Z,9.80
2018-07-25T16:33:07.267Z,8.05
2018-07-25T16:35:36.696Z,5.05
2018-07-25T16:38:06.995Z,7.03
2018-07-25T16:40:36.802Z,4.53
2018-07-25T16:43:06.138Z,3.67
2018-07-25T16:45:35.548Z,7.33
2018-07-25T16:48:05.763Z,10.75
2018-07-25T16:50:35.160Z,4.42
2018-07-25T16:53:04.581Z,4.70
2018-07-25T16:55:33.999Z,4.00
2018-07-25T16:58:03.463Z,5.75
2018-07-25T17:00:32.946Z,4.87
2018-07-25T17:03:02.287Z,9.20
2018-07-25T17:05:31.681Z,4.67
2018-07-25T17:08:01.053Z,6.55
2018-07-25T17:10:30.492Z,5.47
2018-07-25T17:12:59.800Z,5.67
2018-07-25T17:15:29.233Z,5.50
2018-07-25T17:17:58.559Z,7.62
2018-07-25T17:20:28.065Z,4.90
2018-07-25T17:22:57.350Z,4.95
2018-07-25T17:25:26.891Z,5.37
2018-07-25T17:27:56.197Z,7.85
2018-07-25T17:30:25.465Z,5.75
2018-07-25T17:32:54.648Z,4.72
2018-07-25T17:35:23.888Z,4.97
2018-07-25T17:37:52.985Z,7.97
2018-07-25T17:40:22.221Z,7.95
2018-07-25T17:42:51.360Z,4.33
2018-07-25T17:45:20.577Z,7.92
2018-07-25T17:47:49.746Z,6.42
2018-07-25T17:50:18.971Z,5.53
2018-07-25T17:52:48.232Z,7.28
2018-07-25T17:55:17.362Z,4.30
2018-07-25T17:57:46.540Z,5.85
2018-07-25T18:00:15.757Z,7.62
2018-07-25T18:02:44.944Z,9.20
2018-07-25T18:05:14.118Z,6.70
2018-07-25T18:07:43.272Z,4.78
2018-07-25T18:10:12.445Z,6.30
2018-07-25T18:12:41.703Z,5.60
2018-07-25T18:15:11.001Z,4.50
2018-07-25T18:17:40.153Z,5.90
2018-07-25T18:20:09.371Z,5.87
2018-07-25T18:22:38.621Z,5.60
2018-07-25T18:25:07.864Z,7.90
2018-07-25T18:27:37.040Z,12.55
2018-07-25T18:30:07.139Z,11.90
2018-07-25T18:32:36.436Z,6.90
2018-07-25T18:35:05.889Z,8.38
2018-07-25T18:37:35.141Z,7.72
2018-07-25T18:40:04.916Z,8.30
2018-07-25T18:42:34.441Z,5.45
2018-07-25T18:45:03.754Z,5.97
2018-07-25T18:47:33.414Z,6.20
2018-07-25T18:50:02.908Z,5.47
2018-07-25T18:52:32.739Z,6.60
2018-07-25T18:55:02.205Z,6.00
2018-07-25T18:57:31.411Z,10.13
2018-07-25T19:00:00.667Z,6.78
2018-07-25T19:02:30.188Z,6.25
2018-07-25T19:04:59.403Z,7.40
2018-07-25T19:07:29.091Z,7.42
2018-07-25T19:09:58.565Z,6.47
2018-07-25T19:12:27.795Z,7.08
2018-07-25T19:15:02.671Z,8.15
2018-07-25T19:17:32.153Z,7.92
2018-07-25T19:20:02.234Z,5.90
2018-07-25T19:22:31.678Z,6.28
2018-07-25T19:25:01.209Z,7.75
2018-07-25T19:27:30.525Z,9.00
2018-07-25T19:29:59.771Z,10.40
2018-07-25T19:32:29.312Z,6.80
2018-07-25T19:34:58.889Z,7.20
2018-07-25T19:37:28.424Z,9.55
2018-07-25T19:39:57.891Z,8.93
2018-07-25T19:42:27.096Z,6.05
2018-07-25T19:44:56.543Z,6.58
2018-07-25T19:47:26.014Z,6.45
2018-07-25T19:49:55.499Z,8.13
2018-07-25T19:52:24.680Z,7.17
2018-07-25T19:54:54.387Z,13.40
2018-07-25T19:57:23.829Z,8.08
2018-07-25T19:59:53.202Z,11.22
2018-07-25T20:02:23.551Z,9.03
2018-07-25T20:04:52.739Z,10.82
2018-07-25T20:07:22.225Z,9.53
2018-07-25T20:09:51.514Z,10.18
2018-07-25T20:12:21.112Z,9.80
2018-07-25T20:14:55.530Z,9.30
2018-07-25T20:17:25.000Z,8.78
2018-07-25T20:19:54.458Z,9.40
2018-07-25T20:22:23.642Z,6.20
2018-07-25T20:24:52.855Z,9.85
2018-07-25T20:27:22.253Z,6.20
2018-07-25T20:29:51.617Z,8.80
2018-07-25T20:32:21.875Z,6.12
2018-07-25T20:34:51.010Z,7.17
2018-07-25T20:37:20.348Z,8.48
2018-07-25T20:39:49.633Z,8.10
2018-07-25T20:42:18.811Z,9.48
2018-07-25T20:44:47.938Z,7.37
2018-07-25T20:47:17.365Z,5.42
2018-07-25T20:52:22.463Z,8.75
2018-07-25T20:54:51.635Z,5.60
2018-07-25T20:57:20.790Z,8.48
2018-07-25T20:59:50.246Z,7.35
2018-07-25T21:02:19.718Z,6.87
2018-07-25T21:04:48.986Z,6.97
2018-07-25T21:07:20.563Z,8.03
2018-07-25T21:09:49.755Z,10.98
2018-07-25T21:12:19.003Z,8.53
2018-07-25T21:14:48.156Z,11.85
2018-07-25T21:17:17.432Z,12.88
2018-07-25T21:19:46.566Z,9.28
2018-07-25T21:22:15.749Z,8.65
2018-07-25T21:24:44.967Z,9.50
2018-07-25T21:27:14.167Z,7.75
2018-07-25T21:29:43.531Z,8.55
2018-07-25T21:32:12.692Z,8.88
2018-07-25T21:34:42.210Z,9.25
2018-07-25T21:37:11.377Z,6.83
2018-07-25T21:39:40.508Z,8.40
2018-07-25T21:42:09.672Z,7.42
2018-07-25T21:44:38.825Z,9.98
2018-07-25T21:47:08.020Z,7.00
2018-07-25T21:49:37.191Z,8.40
2018-07-25T21:52:06.746Z,9.85
2018-07-25T21:54:35.930Z,7.60
2018-07-25T21:57:05.096Z,7.33
2018-07-25T21:59:34.221Z,8.30
2018-07-25T22:02:03.444Z,6.72
2018-07-25T22:04:32.599Z,9.03
2018-07-25T22:07:01.866Z,9.20
2018-07-25T22:09:31.010Z,8.75
2018-07-25T22:12:00.227Z,9.60
2018-07-25T22:14:29.386Z,9.03
2018-07-25T22:16:58.501Z,10.45
2018-07-25T22:19:27.655Z,8.65
2018-07-25T22:21:56.814Z,8.68
2018-07-25T22:24:26.012Z,9.45
2018-07-25T22:26:55.161Z,8.43
2018-07-25T22:29:24.336Z,7.50
2018-07-25T22:31:53.477Z,9.58
2018-07-25T22:34:22.627Z,6.35
2018-07-25T22:36:51.784Z,7.62
2018-07-25T22:39:20.977Z,6.10
2018-07-25T22:41:50.252Z,6.50
2018-07-25T22:44:19.760Z,6.62
2018-07-25T22:46:48.930Z,7.75
2018-07-25T22:49:18.101Z,5.42
2018-07-25T22:51:47.312Z,7.87
2018-07-25T22:54:16.473Z,5.80
2018-07-25T22:56:45.682Z,8.15
2018-07-25T22:59:14.851Z,9.05
2018-07-25T23:01:43.986Z,8.93
2018-07-25T23:04:13.237Z,9.68
2018-07-25T23:06:42.358Z,7.05
2018-07-25T23:09:12.053Z,8.15
2018-07-25T23:11:41.647Z,7.20
2018-07-25T23:14:10.809Z,7.62
2018-07-25T23:16:39.982Z,6.60
2018-07-25T23:19:09.146Z,6.30
2018-07-25T23:21:38.066Z,8.15
2018-07-25T23:24:07.171Z,6.30
2018-07-25T23:26:36.329Z,9.15
2018-07-25T23:29:05.534Z,7.58
2018-07-25T23:31:34.675Z,7.80
2018-07-25T23:34:03.866Z,9.23
2018-07-25T23:36:33.006Z,8.40
2018-07-25T23:39:02.218Z,7.92
2018-07-25T23:41:31.399Z,7.67
2018-07-25T23:44:00.569Z,8.40
2018-07-25T23:46:29.676Z,8.20
2018-07-25T23:48:58.809Z,7.33
2018-07-25T23:51:27.935Z,5.92
2018-07-25T23:53:57.094Z,7.22
2018-07-25T23:56:26.271Z,5.70
2018-07-25T23:58:55.567Z,8.35
